sensor_id;sensor_type;location;lat;lon;timestamp;P1;durP1;ratioP1;P2;durP2;ratioP2
32228;SDS011;18717;48.034;11.186;2023-02-03T00:02:23;6.88;;;6.38;;
32228;SDS011;18717;48.034;11.186;2023-02-03T00:04:51;7.50;;;6.95;;
32228;SDS011;18717;48.034;11.186;2023-02-03T00:07:19;7.15;;;6.57;;
32228;SDS011;18717;48.034;11.186;2023-02-03T00:09:47;7.40;;;6.65;;
32228;SDS011;18717;48.034;11.186;2023-02-03T00:12:16;7.78;;;6.82;;
32228;SDS011;18717;48.034;11.186;2023-02-03T00:14:43;7.57;;;6.90;;
32228;SDS011;18717;48.034;11.186;2023-02-03T00:17:11;7.75;;;7.10;;
32228;SDS011;18717;48.034;11.186;2023-02-03T00:19:40;7.97;;;7.28;;
32228;SDS011;18717;48.034;11.186;2023-02-03T00:22:08;10.48;;;6.72;;
32228;SDS011;18717;48.034;11.186;2023-02-03T00:24:35;8.10;;;7.30;;
32228;SDS011;18717;48.034;11.186;2023-02-03T00:27:03;7.82;;;6.35;;
32228;SDS011;18717;48.034;11.186;2023-02-03T00:29:32;7.43;;;6.88;;
32228;SDS011;18717;48.034;11.186;2023-02-03T00:32:00;7.60;;;7.05;;
32228;SDS011;18717;48.034;11.186;2023-02-03T00:34:27;7.60;;;6.80;;
32228;SDS011;18717;48.034;11.186;2023-02-03T00:36:56;7.05;;;6.53;;
32228;SDS011;18717;48.034;11.186;2023-02-03T00:39:24;6.38;;;5.93;;
32228;SDS011;18717;48.034;11.186;2023-02-03T00:41:51;9.77;;;6.32;;
32228;SDS011;18717;48.034;11.186;2023-02-03T00:44:19;7.13;;;6.40;;
32228;SDS011;18717;48.034;11.186;2023-02-03T00:46:48;7.10;;;6.53;;
32228;SDS011;18717;48.034;11.186;2023-02-03T00:49:15;7.35;;;6.40;;
32228;SDS011;18717;48.034;11.186;2023-02-03T00:51:43;7.13;;;6.50;;
32228;SDS011;18717;48.034;11.186;2023-02-03T00:54:11;13.80;;;8.23;;
32228;SDS011;18717;48.034;11.186;2023-02-03T00:56:38;8.60;;;7.85;;
32228;SDS011;18717;48.034;11.186;2023-02-03T00:59:06;7.85;;;7.25;;
32228;SDS011;18717;48.034;11.186;2023-02-03T01:01:34;10.00;;;6.90;;
32228;SDS011;18717;48.034;11.186;2023-02-03T01:04:03;8.10;;;7.38;;
32228;SDS011;18717;48.034;11.186;2023-02-03T01:06:31;9.15;;;7.75;;
32228;SDS011;18717;48.034;11.186;2023-02-03T01:09:00;6.75;;;6.10;;
32228;SDS011;18717;48.034;11.186;2023-02-03T01:11:28;7.35;;;6.68;;
32228;SDS011;18717;48.034;11.186;2023-02-03T01:13:55;7.55;;;6.85;;
32228;SDS011;18717;48.034;11.186;2023-02-03T01:16:24;7.28;;;6.60;;
32228;SDS011;18717;48.034;11.186;2023-02-03T01:18:53;6.95;;;6.20;;
32228;SDS011;18717;48.034;11.186;2023-02-03T01:21:24;7.55;;;6.82;;
32228;SDS011;18717;48.034;11.186;2023-02-03T01:23:52;7.20;;;6.63;;
32228;SDS011;18717;48.034;11.186;2023-02-03T01:26:21;12.80;;;8.00;;
32228;SDS011;18717;48.034;11.186;2023-02-03T01:28:49;9.73;;;6.65;;
32228;SDS011;18717;48.034;11.186;2023-02-03T01:31:19;8.05;;;6.72;;
32228;SDS011;18717;48.034;11.186;2023-02-03T01:33:48;7.78;;;7.18;;
32228;SDS011;18717;48.034;11.186;2023-02-03T01:36:16;11.73;;;7.13;;
32228;SDS011;18717;48.034;11.186;2023-02-03T01:38:45;7.15;;;6.60;;
32228;SDS011;18717;48.034;11.186;2023-02-03T01:41:15;7.80;;;7.10;;
32228;SDS011;18717;48.034;11.186;2023-02-03T01:43:47;7.70;;;6.95;;
32228;SDS011;18717;48.034;11.186;2023-02-03T01:46:18;6.90;;;6.57;;
32228;SDS011;18717;48.034;11.186;2023-02-03T01:48:51;7.07;;;6.40;;
32228;SDS011;18717;48.034;11.186;2023-02-03T01:51:20;6.60;;;6.10;;
32228;SDS011;18717;48.034;11.186;2023-02-03T01:53:50;7.03;;;6.63;;
32228;SDS011;18717;48.034;11.186;2023-02-03T01:56:19;7.40;;;6.80;;
32228;SDS011;18717;48.034;11.186;2023-02-03T01:58:47;11.82;;;6.68;;
32228;SDS011;18717;48.034;11.186;2023-02-03T02:01:16;7.47;;;6.82;;
32228;SDS011;18717;48.034;11.186;2023-02-03T02:03:45;7.38;;;6.70;;
32228;SDS011;18717;48.034;11.186;2023-02-03T02:06:15;7.72;;;6.57;;
32228;SDS011;18717;48.034;11.186;2023-02-03T02:08:44;7.68;;;7.10;;
32228;SDS011;18717;48.034;11.186;2023-02-03T02:11:15;6.75;;;6.25;;
32228;SDS011;18717;48.034;11.186;2023-02-03T02:13:43;8.02;;;6.78;;
32228;SDS011;18717;48.034;11.186;2023-02-03T02:16:13;7.32;;;6.68;;
32228;SDS011;18717;48.034;11.186;2023-02-03T02:18:50;6.38;;;6.00;;
32228;SDS011;18717;48.034;11.186;2023-02-03T02:21:39;6.82;;;6.22;;
32228;SDS011;18717;48.034;11.186;2023-02-03T02:27:25;6.40;;;5.90;;
32228;SDS011;18717;48.034;11.186;2023-02-03T02:30:10;7.72;;;6.90;;
32228;SDS011;18717;48.034;11.186;2023-02-03T02:32:52;7.57;;;7.05;;
32228;SDS011;18717;48.034;11.186;2023-02-03T02:35:29;8.60;;;7.15;;
32228;SDS011;18717;48.034;11.186;2023-02-03T02:38:12;8.35;;;6.57;;
32228;SDS011;18717;48.034;11.186;2023-02-03T02:40:47;6.78;;;6.30;;
32228;SDS011;18717;48.034;11.186;2023-02-03T02:43:18;7.03;;;6.53;;
32228;SDS011;18717;48.034;11.186;2023-02-03T02:45:49;6.10;;;4.60;;
32228;SDS011;18717;48.034;11.186;2023-02-03T02:48:22;6.97;;;6.47;;
32228;SDS011;18717;48.034;11.186;2023-02-03T02:50:55;7.32;;;6.45;;
32228;SDS011;18717;48.034;11.186;2023-02-03T02:53:24;6.22;;;5.93;;
32228;SDS011;18717;48.034;11.186;2023-02-03T02:55:54;7.13;;;6.40;;
32228;SDS011;18717;48.034;11.186;2023-02-03T02:58:23;6.68;;;6.07;;
32228;SDS011;18717;48.034;11.186;2023-02-03T03:00:51;6.97;;;6.30;;
32228;SDS011;18717;48.034;11.186;2023-02-03T03:03:19;7.05;;;6.18;;
32228;SDS011;18717;48.034;11.186;2023-02-03T03:05:50;7.47;;;6.70;;
32228;SDS011;18717;48.034;11.186;2023-02-03T03:08:20;6.72;;;6.22;;
32228;SDS011;18717;48.034;11.186;2023-02-03T03:10:50;11.95;;;7.80;;
32228;SDS011;18717;48.034;11.186;2023-02-03T03:13:20;7.53;;;7.13;;
32228;SDS011;18717;48.034;11.186;2023-02-03T03:15:49;7.05;;;6.43;;
32228;SDS011;18717;48.034;11.186;2023-02-03T03:18:19;6.72;;;6.28;;
32228;SDS011;18717;48.034;11.186;2023-02-03T03:20:50;7.28;;;6.82;;
32228;SDS011;18717;48.034;11.186;2023-02-03T03:23:18;6.95;;;6.53;;
32228;SDS011;18717;48.034;11.186;2023-02-03T03:25:50;7.38;;;6.68;;
32228;SDS011;18717;48.034;11.186;2023-02-03T03:28:21;7.47;;;6.93;;
32228;SDS011;18717;48.034;11.186;2023-02-03T03:30:51;7.90;;;6.57;;
32228;SDS011;18717;48.034;11.186;2023-02-03T03:33:21;8.10;;;7.40;;
32228;SDS011;18717;48.034;11.186;2023-02-03T03:35:51;6.80;;;6.40;;
32228;SDS011;18717;48.034;11.186;2023-02-03T03:40:50;7.50;;;6.68;;
32228;SDS011;18717;48.034;11.186;2023-02-03T03:43:20;6.82;;;6.43;;
32228;SDS011;18717;48.034;11.186;2023-02-03T03:45:51;6.07;;;5.72;;
32228;SDS011;18717;48.034;11.186;2023-02-03T03:48:23;6.93;;;6.55;;
32228;SDS011;18717;48.034;11.186;2023-02-03T03:50:56;6.10;;;5.68;;
32228;SDS011;18717;48.034;11.186;2023-02-03T03:53:26;7.20;;;6.45;;
32228;SDS011;18717;48.034;11.186;2023-02-03T03:55:55;7.05;;;6.22;;
32228;SDS011;18717;48.034;11.186;2023-02-03T03:58:25;6.68;;;6.28;;
32228;SDS011;18717;48.034;11.186;2023-02-03T04:00:57;7.22;;;6.70;;
32228;SDS011;18717;48.034;11.186;2023-02-03T04:03:29;7.13;;;6.60;;
32228;SDS011;18717;48.034;11.186;2023-02-03T04:05:59;8.02;;;7.30;;
32228;SDS011;18717;48.034;11.186;2023-02-03T04:08:27;6.15;;;5.85;;
32228;SDS011;18717;48.034;11.186;2023-02-03T04:10:54;6.90;;;6.50;;
32228;SDS011;18717;48.034;11.186;2023-02-03T04:13:22;6.82;;;6.10;;
32228;SDS011;18717;48.034;11.186;2023-02-03T04:15:50;6.47;;;6.07;;
32228;SDS011;18717;48.034;11.186;2023-02-03T04:18:17;9.13;;;6.28;;
32228;SDS011;18717;48.034;11.186;2023-02-03T04:20:46;7.35;;;6.63;;
32228;SDS011;18717;48.034;11.186;2023-02-03T04:23:14;6.25;;;5.88;;
32228;SDS011;18717;48.034;11.186;2023-02-03T04:25:42;6.93;;;6.25;;
32228;SDS011;18717;48.034;11.186;2023-02-03T04:28:09;6.35;;;6.00;;
32228;SDS011;18717;48.034;11.186;2023-02-03T04:30:37;8.32;;;6.35;;
32228;SDS011;18717;48.034;11.186;2023-02-03T04:33:05;7.00;;;6.45;;
32228;SDS011;18717;48.034;11.186;2023-02-03T04:35:32;6.68;;;6.07;;
32228;SDS011;18717;48.034;11.186;2023-02-03T04:38:01;7.20;;;6.55;;
32228;SDS011;18717;48.034;11.186;2023-02-03T04:40:29;7.60;;;6.38;;
32228;SDS011;18717;48.034;11.186;2023-02-03T04:43:04;6.80;;;6.30;;
32228;SDS011;18717;48.034;11.186;2023-02-03T04:45:32;6.03;;;5.70;;
32228;SDS011;18717;48.034;11.186;2023-02-03T04:48:00;7.70;;;6.18;;
32228;SDS011;18717;48.034;11.186;2023-02-03T04:50:29;6.93;;;6.10;;
32228;SDS011;18717;48.034;11.186;2023-02-03T04:52:57;6.82;;;6.32;;
32228;SDS011;18717;48.034;11.186;2023-02-03T04:55:27;6.90;;;6.40;;
32228;SDS011;18717;48.034;11.186;2023-02-03T04:57:54;6.25;;;5.95;;
32228;SDS011;18717;48.034;11.186;2023-02-03T05:00:22;7.05;;;6.38;;
32228;SDS011;18717;48.034;11.186;2023-02-03T05:02:50;8.82;;;6.05;;
32228;SDS011;18717;48.034;11.186;2023-02-03T05:05:18;6.70;;;6.18;;
32228;SDS011;18717;48.034;11.186;2023-02-03T05:07:46;6.93;;;6.40;;
32228;SDS011;18717;48.034;11.186;2023-02-03T05:10:14;6.82;;;6.18;;
32228;SDS011;18717;48.034;11.186;2023-02-03T05:12:43;6.45;;;6.00;;
32228;SDS011;18717;48.034;11.186;2023-02-03T05:15:11;7.70;;;6.93;;
32228;SDS011;18717;48.034;11.186;2023-02-03T05:17:38;6.43;;;6.00;;
32228;SDS011;18717;48.034;11.186;2023-02-03T05:20:06;7.03;;;6.40;;
32228;SDS011;18717;48.034;11.186;2023-02-03T05:22:34;6.53;;;5.95;;
32228;SDS011;18717;48.034;11.186;2023-02-03T05:25:02;9.50;;;6.20;;
32228;SDS011;18717;48.034;11.186;2023-02-03T05:27:30;8.55;;;6.70;;
32228;SDS011;18717;48.034;11.186;2023-02-03T05:29:59;7.10;;;6.50;;
32228;SDS011;18717;48.034;11.186;2023-02-03T05:32:27;8.57;;;6.20;;
32228;SDS011;18717;48.034;11.186;2023-02-03T05:34:55;7.07;;;6.50;;
32228;SDS011;18717;48.034;11.186;2023-02-03T05:37:22;8.20;;;6.43;;
32228;SDS011;18717;48.034;11.186;2023-02-03T05:39:50;6.72;;;6.15;;
32228;SDS011;18717;48.034;11.186;2023-02-03T05:42:18;6.63;;;6.03;;
32228;SDS011;18717;48.034;11.186;2023-02-03T05:44:44;8.52;;;6.63;;
32228;SDS011;18717;48.034;11.186;2023-02-03T05:47:13;6.90;;;6.40;;
32228;SDS011;18717;48.034;11.186;2023-02-03T05:49:41;6.65;;;6.00;;
32228;SDS011;18717;48.034;11.186;2023-02-03T05:52:08;5.93;;;5.60;;
32228;SDS011;18717;48.034;11.186;2023-02-03T05:54:36;6.78;;;6.22;;
32228;SDS011;18717;48.034;11.186;2023-02-03T05:57:04;6.70;;;6.35;;
32228;SDS011;18717;48.034;11.186;2023-02-03T05:59:31;9.43;;;7.07;;
32228;SDS011;18717;48.034;11.186;2023-02-03T06:01:59;7.47;;;6.20;;
32228;SDS011;18717;48.034;11.186;2023-02-03T06:04:28;6.40;;;6.00;;
32228;SDS011;18717;48.034;11.186;2023-02-03T06:06:56;7.10;;;6.53;;
32228;SDS011;18717;48.034;11.186;2023-02-03T06:09:23;6.28;;;5.88;;
32228;SDS011;18717;48.034;11.186;2023-02-03T06:11:51;7.55;;;6.30;;
32228;SDS011;18717;48.034;11.186;2023-02-03T06:14:18;6.95;;;6.35;;
32228;SDS011;18717;48.034;11.186;2023-02-03T06:16:46;5.68;;;5.28;;
32228;SDS011;18717;48.034;11.186;2023-02-03T06:19:14;7.15;;;6.60;;
32228;SDS011;18717;48.034;11.186;2023-02-03T06:21:43;10.80;;;6.25;;
32228;SDS011;18717;48.034;11.186;2023-02-03T06:24:11;6.63;;;6.13;;
32228;SDS011;18717;48.034;11.186;2023-02-03T06:26:38;6.28;;;5.50;;
32228;SDS011;18717;48.034;11.186;2023-02-03T06:29:06;6.57;;;6.18;;
32228;SDS011;18717;48.034;11.186;2023-02-03T06:31:34;6.10;;;5.65;;
32228;SDS011;18717;48.034;11.186;2023-02-03T06:34:01;6.82;;;6.28;;
32228;SDS011;18717;48.034;11.186;2023-02-03T06:36:29;6.65;;;6.15;;
32228;SDS011;18717;48.034;11.186;2023-02-03T06:38:58;12.93;;;6.43;;
32228;SDS011;18717;48.034;11.186;2023-02-03T06:41:26;6.65;;;6.32;;
32228;SDS011;18717;48.034;11.186;2023-02-03T06:43:55;6.55;;;6.07;;
32228;SDS011;18717;48.034;11.186;2023-02-03T06:46:23;5.78;;;5.38;;
32228;SDS011;18717;48.034;11.186;2023-02-03T06:48:53;6.22;;;5.82;;
32228;SDS011;18717;48.034;11.186;2023-02-03T06:51:21;5.68;;;5.38;;
32228;SDS011;18717;48.034;11.186;2023-02-03T06:53:50;6.55;;;6.15;;
32228;SDS011;18717;48.034;11.186;2023-02-03T06:56:19;5.95;;;5.55;;
32228;SDS011;18717;48.034;11.186;2023-02-03T06:58:46;6.53;;;6.13;;
32228;SDS011;18717;48.034;11.186;2023-02-03T07:01:14;5.88;;;5.47;;
32228;SDS011;18717;48.034;11.186;2023-02-03T07:03:42;5.55;;;5.25;;
32228;SDS011;18717;48.034;11.186;2023-02-03T07:06:09;6.28;;;5.68;;
32228;SDS011;18717;48.034;11.186;2023-02-03T07:08:37;6.57;;;5.97;;
32228;SDS011;18717;48.034;11.186;2023-02-03T07:11:05;6.00;;;5.57;;
32228;SDS011;18717;48.034;11.186;2023-02-03T07:13:37;6.45;;;6.05;;
32228;SDS011;18717;48.034;11.186;2023-02-03T07:16:05;6.05;;;5.70;;
32228;SDS011;18717;48.034;11.186;2023-02-03T07:18:33;7.18;;;6.30;;
32228;SDS011;18717;48.034;11.186;2023-02-03T07:21:13;5.97;;;5.57;;
32228;SDS011;18717;48.034;11.186;2023-02-03T07:23:41;7.00;;;6.55;;
32228;SDS011;18717;48.034;11.186;2023-02-03T07:26:09;5.60;;;5.30;;
32228;SDS011;18717;48.034;11.186;2023-02-03T07:28:38;6.25;;;5.85;;
32228;SDS011;18717;48.034;11.186;2023-02-03T07:31:06;8.20;;;6.15;;
32228;SDS011;18717;48.034;11.186;2023-02-03T07:33:35;6.80;;;6.28;;
32228;SDS011;18717;48.034;11.186;2023-02-03T07:36:03;6.75;;;6.28;;
32228;SDS011;18717;48.034;11.186;2023-02-03T07:38:32;7.10;;;6.60;;
32228;SDS011;18717;48.034;11.186;2023-02-03T07:40:59;6.15;;;5.82;;
32228;SDS011;18717;48.034;11.186;2023-02-03T07:43:27;6.82;;;6.20;;
32228;SDS011;18717;48.034;11.186;2023-02-03T07:45:56;6.55;;;6.05;;
32228;SDS011;18717;48.034;11.186;2023-02-03T07:48:23;6.85;;;6.45;;
32228;SDS011;18717;48.034;11.186;2023-02-03T07:50:51;6.55;;;6.15;;
32228;SDS011;18717;48.034;11.186;2023-02-03T07:53:19;6.78;;;6.38;;
32228;SDS011;18717;48.034;11.186;2023-02-03T07:55:46;6.32;;;5.80;;
32228;SDS011;18717;48.034;11.186;2023-02-03T07:58:14;7.07;;;6.65;;
32228;SDS011;18717;48.034;11.186;2023-02-03T08:00:42;7.47;;;6.47;;
32228;SDS011;18717;48.034;11.186;2023-02-03T08:03:11;6.22;;;5.93;;
32228;SDS011;18717;48.034;11.186;2023-02-03T08:05:38;7.32;;;6.00;;
32228;SDS011;18717;48.034;11.186;2023-02-03T08:08:06;6.30;;;5.90;;
32228;SDS011;18717;48.034;11.186;2023-02-03T08:10:34;6.60;;;6.15;;
32228;SDS011;18717;48.034;11.186;2023-02-03T08:13:01;5.63;;;5.38;;
32228;SDS011;18717;48.034;11.186;2023-02-03T08:15:29;6.75;;;6.45;;
32228;SDS011;18717;48.034;11.186;2023-02-03T08:17:56;6.85;;;6.25;;
32228;SDS011;18717;48.034;11.186;2023-02-03T08:20:25;7.10;;;6.45;;
32228;SDS011;18717;48.034;11.186;2023-02-03T08:22:54;6.50;;;5.93;;
32228;SDS011;18717;48.034;11.186;2023-02-03T08:25:21;6.28;;;6.00;;
32228;SDS011;18717;48.034;11.186;2023-02-03T08:27:49;7.85;;;6.72;;
32228;SDS011;18717;48.034;11.186;2023-02-03T08:30:17;6.45;;;6.05;;
32228;SDS011;18717;48.034;11.186;2023-02-03T08:32:44;7.15;;;6.65;;
32228;SDS011;18717;48.034;11.186;2023-02-03T08:35:12;6.40;;;5.90;;
32228;SDS011;18717;48.034;11.186;2023-02-03T08:37:41;6.93;;;6.53;;
32228;SDS011;18717;48.034;11.186;2023-02-03T08:40:09;6.57;;;5.97;;
32228;SDS011;18717;48.034;11.186;2023-02-03T08:42:38;7.35;;;6.85;;
32228;SDS011;18717;48.034;11.186;2023-02-03T08:45:06;6.70;;;6.30;;
32228;SDS011;18717;48.034;11.186;2023-02-03T08:47:34;6.97;;;6.20;;
32228;SDS011;18717;48.034;11.186;2023-02-03T08:50:03;6.95;;;6.63;;
32228;SDS011;18717;48.034;11.186;2023-02-03T08:52:31;7.32;;;6.75;;
32228;SDS011;18717;48.034;11.186;2023-02-03T08:55:00;6.30;;;5.82;;
32228;SDS011;18717;48.034;11.186;2023-02-03T08:57:30;6.80;;;6.40;;
32228;SDS011;18717;48.034;11.186;2023-02-03T08:59:58;6.30;;;6.00;;
32228;SDS011;18717;48.034;11.186;2023-02-03T09:02:26;6.53;;;6.13;;
32228;SDS011;18717;48.034;11.186;2023-02-03T09:04:54;6.53;;;6.13;;
32228;SDS011;18717;48.034;11.186;2023-02-03T09:07:21;6.35;;;5.80;;
32228;SDS011;18717;48.034;11.186;2023-02-03T09:09:49;6.07;;;5.70;;
32228;SDS011;18717;48.034;11.186;2023-02-03T09:12:18;6.10;;;5.80;;
32228;SDS011;18717;48.034;11.186;2023-02-03T09:14:46;6.20;;;5.80;;
32228;SDS011;18717;48.034;11.186;2023-02-03T09:17:13;6.80;;;6.20;;
32228;SDS011;18717;48.034;11.186;2023-02-03T09:19:41;6.68;;;6.38;;
32228;SDS011;18717;48.034;11.186;2023-02-03T09:22:09;6.90;;;6.50;;
32228;SDS011;18717;48.034;11.186;2023-02-03T09:24:37;6.75;;;6.28;;
32228;SDS011;18717;48.034;11.186;2023-02-03T09:27:04;7.07;;;6.57;;
32228;SDS011;18717;48.034;11.186;2023-02-03T09:29:33;6.30;;;5.95;;
32228;SDS011;18717;48.034;11.186;2023-02-03T09:32:01;7.20;;;6.60;;
32228;SDS011;18717;48.034;11.186;2023-02-03T09:34:33;8.43;;;7.60;;
32228;SDS011;18717;48.034;11.186;2023-02-03T09:37:01;6.90;;;6.30;;
32228;SDS011;18717;48.034;11.186;2023-02-03T09:39:29;7.22;;;6.63;;
32228;SDS011;18717;48.034;11.186;2023-02-03T09:42:04;6.70;;;6.40;;
32228;SDS011;18717;48.034;11.186;2023-02-03T09:44:45;7.28;;;6.57;;
32228;SDS011;18717;48.034;11.186;2023-02-03T09:47:16;7.25;;;6.70;;
32228;SDS011;18717;48.034;11.186;2023-02-03T09:49:47;6.60;;;6.18;;
32228;SDS011;18717;48.034;11.186;2023-02-03T09:52:18;7.13;;;6.73;;
32228;SDS011;18717;48.034;11.186;2023-02-03T09:54:49;6.30;;;6.00;;
32228;SDS011;18717;48.034;11.186;2023-02-03T09:57:20;7.10;;;6.43;;
32228;SDS011;18717;48.034;11.186;2023-02-03T09:59:51;5.97;;;5.68;;
32228;SDS011;18717;48.034;11.186;2023-02-03T10:02:22;6.72;;;6.43;;
32228;SDS011;18717;48.034;11.186;2023-02-03T10:04:57;7.72;;;7.13;;
32228;SDS011;18717;48.034;11.186;2023-02-03T10:07:27;6.72;;;6.32;;
32228;SDS011;18717;48.034;11.186;2023-02-03T10:10:01;8.02;;;7.32;;
32228;SDS011;18717;48.034;11.186;2023-02-03T10:12:50;7.53;;;7.00;;
32228;SDS011;18717;48.034;11.186;2023-02-03T10:18:15;7.40;;;6.80;;
32228;SDS011;18717;48.034;11.186;2023-02-03T10:20:45;6.80;;;6.50;;
32228;SDS011;18717;48.034;11.186;2023-02-03T10:23:15;6.68;;;6.28;;
32228;SDS011;18717;48.034;11.186;2023-02-03T10:25:46;6.95;;;6.55;;
32228;SDS011;18717;48.034;11.186;2023-02-03T10:28:23;6.90;;;6.45;;
32228;SDS011;18717;48.034;11.186;2023-02-03T10:30:54;7.13;;;6.75;;
32228;SDS011;18717;48.034;11.186;2023-02-03T10:33:24;7.47;;;7.05;;
32228;SDS011;18717;48.034;11.186;2023-02-03T10:35:53;7.80;;;7.22;;
32228;SDS011;18717;48.034;11.186;2023-02-03T10:38:35;6.82;;;6.47;;
32228;SDS011;18717;48.034;11.186;2023-02-03T10:41:07;6.95;;;6.53;;
32228;SDS011;18717;48.034;11.186;2023-02-03T10:43:35;6.60;;;6.10;;
32228;SDS011;18717;48.034;11.186;2023-02-03T10:46:19;7.43;;;7.03;;
32228;SDS011;18717;48.034;11.186;2023-02-03T10:48:51;7.55;;;6.88;;
32228;SDS011;18717;48.034;11.186;2023-02-03T10:51:19;7.82;;;7.20;;
32228;SDS011;18717;48.034;11.186;2023-02-03T10:53:49;7.10;;;6.63;;
32228;SDS011;18717;48.034;11.186;2023-02-03T10:56:19;7.85;;;7.30;;
32228;SDS011;18717;48.034;11.186;2023-02-03T10:58:49;7.40;;;6.78;;
32228;SDS011;18717;48.034;11.186;2023-02-03T11:01:20;7.00;;;6.60;;
32228;SDS011;18717;48.034;11.186;2023-02-03T11:03:56;7.25;;;6.85;;
32228;SDS011;18717;48.034;11.186;2023-02-03T11:06:25;7.30;;;6.90;;
32228;SDS011;18717;48.034;11.186;2023-02-03T11:08:54;7.65;;;7.25;;
32228;SDS011;18717;48.034;11.186;2023-02-03T11:11:22;7.47;;;7.18;;
32228;SDS011;18717;48.034;11.186;2023-02-03T11:13:51;7.80;;;7.18;;
32228;SDS011;18717;48.034;11.186;2023-02-03T11:16:21;7.50;;;6.97;;
32228;SDS011;18717;48.034;11.186;2023-02-03T11:18:51;7.70;;;7.20;;
32228;SDS011;18717;48.034;11.186;2023-02-03T11:21:23;7.00;;;6.68;;
32228;SDS011;18717;48.034;11.186;2023-02-03T11:23:53;8.20;;;7.70;;
32228;SDS011;18717;48.034;11.186;2023-02-03T11:26:25;8.00;;;7.43;;
32228;SDS011;18717;48.034;11.186;2023-02-03T11:28:55;7.10;;;6.72;;
32228;SDS011;18717;48.034;11.186;2023-02-03T11:31:25;6.90;;;6.50;;
32228;SDS011;18717;48.034;11.186;2023-02-03T11:33:55;6.78;;;6.47;;
32228;SDS011;18717;48.034;11.186;2023-02-03T11:36:25;7.55;;;7.15;;
32228;SDS011;18717;48.034;11.186;2023-02-03T11:41:45;7.90;;;7.20;;
32228;SDS011;18717;48.034;11.186;2023-02-03T11:44:15;7.25;;;6.75;;
32228;SDS011;18717;48.034;11.186;2023-02-03T11:46:47;7.45;;;7.05;;
32228;SDS011;18717;48.034;11.186;2023-02-03T11:52:38;6.82;;;6.40;;
32228;SDS011;18717;48.034;11.186;2023-02-03T11:55:15;7.63;;;7.13;;
32228;SDS011;18717;48.034;11.186;2023-02-03T11:57:51;7.15;;;6.60;;
32228;SDS011;18717;48.034;11.186;2023-02-03T12:00:26;7.32;;;6.72;;
32228;SDS011;18717;48.034;11.186;2023-02-03T12:03:04;6.95;;;6.60;;
32228;SDS011;18717;48.034;11.186;2023-02-03T12:05:47;7.05;;;6.65;;
32228;SDS011;18717;48.034;11.186;2023-02-03T12:08:23;6.60;;;6.20;;
32228;SDS011;18717;48.034;11.186;2023-02-03T12:10:59;6.72;;;6.43;;
32228;SDS011;18717;48.034;11.186;2023-02-03T12:13:39;7.15;;;6.65;;
32228;SDS011;18717;48.034;11.186;2023-02-03T12:16:22;6.95;;;6.57;;
32228;SDS011;18717;48.034;11.186;2023-02-03T12:19:11;7.80;;;7.28;;
32228;SDS011;18717;48.034;11.186;2023-02-03T12:21:42;6.65;;;6.35;;
32228;SDS011;18717;48.034;11.186;2023-02-03T12:24:14;7.82;;;7.43;;
32228;SDS011;18717;48.034;11.186;2023-02-03T12:26:53;7.30;;;6.88;;
32228;SDS011;18717;48.034;11.186;2023-02-03T12:29:23;7.38;;;7.03;;
32228;SDS011;18717;48.034;11.186;2023-02-03T12:32:01;6.93;;;6.63;;
32228;SDS011;18717;48.034;11.186;2023-02-03T12:34:34;7.40;;;7.00;;
32228;SDS011;18717;48.034;11.186;2023-02-03T12:39:33;7.32;;;6.75;;
32228;SDS011;18717;48.034;11.186;2023-02-03T12:42:04;6.75;;;6.45;;
32228;SDS011;18717;48.034;11.186;2023-02-03T12:44:39;6.75;;;6.45;;
32228;SDS011;18717;48.034;11.186;2023-02-03T12:47:12;7.45;;;7.05;;
32228;SDS011;18717;48.034;11.186;2023-02-03T12:49:44;7.93;;;7.53;;
32228;SDS011;18717;48.034;11.186;2023-02-03T12:52:16;6.85;;;6.45;;
32228;SDS011;18717;48.034;11.186;2023-02-03T12:54:48;7.63;;;7.15;;
32228;SDS011;18717;48.034;11.186;2023-02-03T12:57:21;7.05;;;6.55;;
32228;SDS011;18717;48.034;11.186;2023-02-03T13:02:47;7.45;;;7.05;;
32228;SDS011;18717;48.034;11.186;2023-02-03T13:05:22;7.75;;;7.10;;
32228;SDS011;18717;48.034;11.186;2023-02-03T13:07:54;6.70;;;6.30;;
32228;SDS011;18717;48.034;11.186;2023-02-03T13:10:27;7.75;;;7.18;;
32228;SDS011;18717;48.034;11.186;2023-02-03T13:12:58;8.20;;;7.70;;
32228;SDS011;18717;48.034;11.186;2023-02-03T13:15:27;7.25;;;6.65;;
32228;SDS011;18717;48.034;11.186;2023-02-03T13:17:58;7.45;;;6.93;;
32228;SDS011;18717;48.034;11.186;2023-02-03T13:20:32;6.85;;;6.55;;
32228;SDS011;18717;48.034;11.186;2023-02-03T13:23:02;7.50;;;7.07;;
32228;SDS011;18717;48.034;11.186;2023-02-03T13:25:34;7.40;;;7.00;;
32228;SDS011;18717;48.034;11.186;2023-02-03T13:28:11;7.07;;;6.60;;
32228;SDS011;18717;48.034;11.186;2023-02-03T13:36:49;6.57;;;6.28;;
32228;SDS011;18717;48.034;11.186;2023-02-03T13:39:34;7.47;;;7.10;;
32228;SDS011;18717;48.034;11.186;2023-02-03T13:42:11;7.18;;;6.68;;
32228;SDS011;18717;48.034;11.186;2023-02-03T13:44:45;7.80;;;7.40;;
32228;SDS011;18717;48.034;11.186;2023-02-03T13:47:15;7.72;;;6.82;;
32228;SDS011;18717;48.034;11.186;2023-02-03T13:49:45;7.68;;;7.28;;
32228;SDS011;18717;48.034;11.186;2023-02-03T13:54:52;6.95;;;6.47;;
32228;SDS011;18717;48.034;11.186;2023-02-03T13:57:21;7.35;;;6.95;;
32228;SDS011;18717;48.034;11.186;2023-02-03T13:59:50;7.03;;;6.43;;
32228;SDS011;18717;48.034;11.186;2023-02-03T14:02:39;6.53;;;6.22;;
32228;SDS011;18717;48.034;11.186;2023-02-03T14:23:14;7.03;;;6.65;;
32228;SDS011;18717;48.034;11.186;2023-02-03T14:25:45;6.80;;;6.50;;
32228;SDS011;18717;48.034;11.186;2023-02-03T14:28:16;7.05;;;6.57;;
32228;SDS011;18717;48.034;11.186;2023-02-03T14:31:01;6.97;;;6.68;;
32228;SDS011;18717;48.034;11.186;2023-02-03T14:36:42;6.68;;;6.20;;
32228;SDS011;18717;48.034;11.186;2023-02-03T14:39:37;7.55;;;6.82;;
32228;SDS011;18717;48.034;11.186;2023-02-03T14:42:38;7.47;;;6.93;;
32228;SDS011;18717;48.034;11.186;2023-02-03T14:45:19;6.82;;;6.43;;
32228;SDS011;18717;48.034;11.186;2023-02-03T14:47:59;7.57;;;7.03;;
32228;SDS011;18717;48.034;11.186;2023-02-03T14:50:38;6.95;;;6.50;;
32228;SDS011;18717;48.034;11.186;2023-02-03T14:53:22;7.30;;;6.90;;
32228;SDS011;18717;48.034;11.186;2023-02-03T14:56:00;6.60;;;6.30;;
32228;SDS011;18717;48.034;11.186;2023-02-03T14:58:40;6.93;;;6.60;;
32228;SDS011;18717;48.034;11.186;2023-02-03T15:01:23;7.35;;;6.68;;
32228;SDS011;18717;48.034;11.186;2023-02-03T15:06:49;6.75;;;6.35;;
32228;SDS011;18717;48.034;11.186;2023-02-03T15:09:26;7.22;;;6.63;;
32228;SDS011;18717;48.034;11.186;2023-02-03T15:11:56;6.50;;;6.13;;
32228;SDS011;18717;48.034;11.186;2023-02-03T15:14:24;6.80;;;6.50;;
32228;SDS011;18717;48.034;11.186;2023-02-03T15:16:55;6.32;;;5.97;;
32228;SDS011;18717;48.034;11.186;2023-02-03T15:19:25;7.13;;;6.72;;
32228;SDS011;18717;48.034;11.186;2023-02-03T15:21:54;6.88;;;6.57;;
32228;SDS011;18717;48.034;11.186;2023-02-03T15:24:21;6.50;;;6.20;;
32228;SDS011;18717;48.034;11.186;2023-02-03T15:26:51;470.90;;;181.90;;
32228;SDS011;18717;48.034;11.186;2023-02-03T15:29:27;280.90;;;153.55;;
32228;SDS011;18717;48.034;11.186;2023-02-03T15:31:59;206.80;;;104.25;;
32228;SDS011;18717;48.034;11.186;2023-02-03T15:34:31;54.70;;;28.35;;
32228;SDS011;18717;48.034;11.186;2023-02-03T15:37:01;22.17;;;14.13;;
32228;SDS011;18717;48.034;11.186;2023-02-03T15:39:39;18.27;;;13.10;;
32228;SDS011;18717;48.034;11.186;2023-02-03T15:42:14;86.18;;;40.03;;
32228;SDS011;18717;48.034;11.186;2023-02-03T15:44:45;14.18;;;12.75;;
32228;SDS011;18717;48.034;11.186;2023-02-03T15:49:47;27.90;;;20.73;;